Latest Weather Observations for Kuitpo

IDS60801

Issued at 8:32 am CST Sunday 26 April 2015 (issued every 30 minutes, with the page automatically refreshed every 10 minutes)

About weather observations | Map of weather stations | Latest weather observations for SA | Other Formats
Station Details ID: 023887 Name: KUITPO FOREST RESERVE Lat: -35.17 Lon: 138.68 Height: 365.0 m
Data from the previous 72 hours. | See also: Recent months at Kuitpo
Date/Time
CST
Temp
°C
App
Temp
°C
Dew
Point
Rel
Hum
%
Delta-T
°C
Wind Press
QNH
hPa
Press
MSL
hPa
Rain
since 9 am
mm
Dir
 
Spd
km/h
Gust
km/h
Spd
kts
Gust
kts
26/08:30am 9.8 8.1 9.8 100 0.0 S 9 17 5 9 1023.2 1022.6 3.2
26/08:00am 9.1 7.2 9.1 100 0.0 S 9 13 5 7 1022.8 1022.2 3.2
26/07:30am 8.9 6.6 8.9 100 0.0 SSW 11 17 6 9 1022.5 1021.9 3.0
26/07:00am 8.6 5.8 8.6 100 0.0 SSW 13 17 7 9 1022.0 1021.4 2.6
26/06:30am 8.7 6.3 8.7 100 0.0 SSW 11 15 6 8 1021.5 1020.9 2.6
26/06:00am 8.7 5.9 8.7 100 0.0 SSW 13 19 7 10 1021.3 1020.7 2.4
26/05:30am 8.4 5.6 8.4 100 0.0 S 13 17 7 9 1021.0 1020.4 2.4
26/05:00am 8.5 5.7 8.5 100 0.0 SSW 13 19 7 10 1020.8 1020.2 2.4
26/04:30am 8.6 6.2 8.6 100 0.0 S 11 20 6 11 1020.5 1019.9 2.4
26/04:00am 8.6 5.4 8.6 100 0.0 SSW 15 22 8 12 1020.3 1019.7 2.2
26/03:30am 8.3 5.1 8.3 100 0.0 SSW 15 20 8 11 1020.1 1019.5 2.2
26/03:00am 8.3 5.4 8.3 100 0.0 SSW 13 17 7 9 1020.2 1019.6 2.2
26/02:30am 8.1 6.0 8.1 100 0.0 SSW 9 11 5 6 1020.2 1019.6 2.2
26/02:00am 8.6 6.2 8.6 100 0.0 SSW 11 15 6 8 1020.3 1019.7 2.2
26/01:30am 8.5 6.5 8.5 100 0.0 SSW 9 13 5 7 1020.2 1019.6 2.2
26/01:00am 8.9 6.2 8.9 100 0.0 SSW 13 17 7 9 1020.1 1019.5 2.0
26/12:30am 9.4 7.0 8.6 95 0.4 SSW 11 17 6 9 1019.9 1019.3 2.0
26/12:00am 9.4 6.8 9.3 99 0.1 SSW 13 19 7 10 1019.8 1019.2 1.8
 
Date/Time
CST
Temp
°C
App
Temp
°C
Dew
Point
Rel
Hum
%
Delta-T
°C
Wind Press
QNH
hPa
Press
MSL
hPa
Rain
since 9 am
mm
Dir
 
Spd
km/h
Gust
km/h
Spd
kts
Gust
kts
25/11:30pm 9.3 6.7 9.3 100 0.0 SW 13 19 7 10 1019.7 1019.1 1.8
25/11:00pm 9.8 7.3 9.8 100 0.0 SW 13 22 7 12 1019.8 1019.2 1.8
25/10:30pm 9.8 7.3 9.8 100 0.0 SSW 13 20 7 11 1019.6 1019.0 1.8
25/10:00pm 9.8 7.3 9.8 100 0.0 SSW 13 20 7 11 1019.5 1018.8 1.8
25/09:30pm 9.8 7.7 9.8 100 0.0 SSW 11 17 6 9 1019.3 1018.6 1.8
25/09:00pm 9.6 7.8 9.6 100 0.0 SW 9 13 5 7 1019.1 1018.4 1.8
25/08:30pm 9.8 6.6 9.8 100 0.0 SSW 17 24 9 13 1018.7 1018.1 1.8
25/08:00pm 10.1 6.9 10.1 100 0.0 SSW 17 30 9 16 1018.4 1017.8 1.8
25/07:30pm 10.1 6.9 10.1 100 0.0 SSW 17 30 9 16 1018.2 1017.6 1.8
25/07:00pm 10.3 7.2 10.3 100 0.0 S 17 35 9 19 1017.7 1017.1 1.2
25/06:30pm 10.4 6.8 10.4 100 0.0 S 20 30 11 16 1017.2 1016.5 1.2
25/06:00pm 10.8 7.5 10.8 100 0.0 SSW 19 32 10 17 1016.7 1016.0 1.0
25/05:30pm 11.0 8.1 11.0 100 0.0 SSW 17 28 9 15 1016.3 1015.6 1.0
25/05:00pm 11.1 7.7 11.1 100 0.0 SSW 20 35 11 19 1015.6 1015.0 1.0
25/04:30pm 12.1 9.0 12.1 100 0.0 S 20 44 11 24 1015.1 1014.5 1.0
25/04:00pm 12.4 9.4 12.4 100 0.0 SSW 20 35 11 19 1014.7 1014.0 1.0
25/03:30pm 12.6 9.6 12.6 100 0.0 S 20 37 11 20 1014.3 1013.6 1.0
25/03:00pm 12.3 9.2 12.3 100 0.0 S 20 41 11 22 1013.7 1013.0 0.8
25/02:30pm 12.0 7.7 12.0 100 0.0 S 26 43 14 23 1013.5 1012.8 0.8
25/02:18pm 11.9 7.2 11.9 100 0.0 SSW 28 48 15 26 1013.2 1012.6 0.8
25/02:00pm 12.4 9.5 12.4 100 0.0 SSW 19 33 10 18 1013.0 1012.4 0.2
25/01:30pm 12.1 9.5 12.1 100 0.0 SW 17 24 9 13 1012.9 1012.3 0.2
25/01:00pm 11.8 8.8 11.8 100 0.0 SW 19 30 10 16 1013.0 1012.4 0.2
25/12:30pm 11.3 8.9 11.3 100 0.0 SW 15 22 8 12 1013.1 1012.5 0.2
25/12:00pm 11.8 9.1 11.8 100 0.0 SW 17 28 9 15 1013.1 1012.5 0.2
25/11:30am 12.0 9.0 12.0 100 0.0 WSW 19 32 10 17 1013.0 1012.4 0.2
25/11:00am 12.0 10.5 12.0 100 0.0 WSW 11 19 6 10 1012.8 1012.2 0.2
25/10:30am 11.5 9.5 11.5 100 0.0 SW 13 20 7 11 1012.6 1012.0 0.2
25/10:00am 11.7 10.1 11.5 99 0.1 SW 11 19 6 10 1012.3 1011.6 0.0
25/09:30am 10.7 8.1 10.7 100 0.0 SSW 15 22 8 12 1012.1 1011.4 0.0
25/09:00am 10.4 8.5 10.4 100 0.0 SSW 11 19 6 10 1011.7 1011.0 26.6
25/08:30am 9.9 7.5 9.9 100 0.0 S 13 20 7 11 1011.0 1010.3 26.6
25/08:00am 8.4 6.3 8.4 100 0.0 S 9 17 5 9 1010.5 1009.8 26.6
25/07:30am 8.0 5.5 8.0 100 0.0 SSE 11 15 6 8 1009.5 1008.8 26.6
25/07:00am 7.8 4.8 7.8 100 0.0 SE 13 24 7 13 1008.8 1008.1 26.6
25/06:30am 7.9 4.6 7.9 100 0.0 SSE 15 26 8 14 1008.1 1007.4 26.4
25/06:00am 7.8 4.1 7.8 100 0.0 SSE 17 32 9 17 1007.4 1006.7 26.4
25/05:30am 7.6 3.8 7.6 100 0.0 S 17 33 9 18 1006.7 1006.0 26.4
25/05:00am 7.4 3.6 7.4 100 0.0 SSE 17 33 9 18 1005.7 1005.0 26.4
25/04:30am 7.2 4.8 7.2 100 0.0 S 9 17 5 9 1005.1 1004.3 26.2
25/04:00am 7.0 3.8 7.0 100 0.0 S 13 19 7 10 1004.2 1003.5 25.4
25/03:30am 6.9 3.3 6.9 100 0.0 SSE 15 24 8 13 1003.3 1002.6 25.4
25/03:00am 7.0 3.1 7.0 100 0.0 SE 17 28 9 15 1002.3 1001.5 25.4
25/02:30am 6.7 3.1 6.7 100 0.0 SSE 15 28 8 15 1001.4 1000.7 25.4
25/02:00am 6.0 3.0 6.0 100 0.0 SSE 11 15 6 8 1000.8 1000.1 25.2
25/01:30am 6.4 3.5 6.4 100 0.0 ESE 11 15 6 8 1000.3 999.5 25.2
25/01:00am 7.1 4.7 7.1 100 0.0 SSE 9 15 5 8 1000.6 999.8 24.4
25/12:30am 7.8 4.4 7.8 100 0.0 N 15 28 8 15 1000.1 999.3 21.6
25/12:00am 8.0 4.3 8.0 100 0.0 N 17 28 9 15 999.7 998.9 21.4
 
Date/Time
CST
Temp
°C
App
Temp
°C
Dew
Point
Rel
Hum
%
Delta-T
°C
Wind Press
QNH
hPa
Press
MSL
hPa
Rain
since 9 am
mm
Dir
 
Spd
km/h
Gust
km/h
Spd
kts
Gust
kts
24/11:30pm 8.1 3.9 8.1 100 0.0 N 20 35 11 19 1000.0 999.2 20.2
24/11:00pm 8.3 5.4 8.3 100 0.0 N 13 20 7 11 1000.3 999.5 20.0
24/10:30pm 8.6 5.1 8.6 100 0.0 NNW 17 28 9 15 1000.6 999.8 17.4
24/10:00pm 8.5 4.6 8.5 100 0.0 NNW 19 33 10 18 1000.9 1000.2 17.0
24/09:30pm 8.4 4.4 8.4 100 0.0 NNW 19 35 10 19 1001.9 1001.1 17.0
24/09:00pm 7.8 3.7 7.8 100 0.0 NW 19 30 10 16 1002.4 1001.6 16.8
24/08:30pm 7.7 2.6 7.7 100 0.0 NNW 24 39 13 21 1002.8 1002.0 16.6
24/08:00pm 8.6 4.5 8.6 100 0.0 NNW 20 32 11 17 1003.7 1003.0 14.2
24/07:30pm 8.9 5.0 8.5 97 0.2 NW 19 28 10 15 1003.8 1003.1 11.6
24/07:00pm 8.6 4.7 8.6 100 0.0 NW 19 30 10 16 1004.4 1003.7 11.6
24/06:30pm 9.0 5.5 8.7 98 0.1 NW 17 26 9 14 1004.5 1003.8 10.8
24/06:00pm 8.9 6.2 8.9 100 0.0 WNW 13 20 7 11 1004.8 1004.0 10.8
24/05:30pm 10.0 4.8 7.1 82 1.4 WNW 24 39 13 21 1004.9 1004.1 10.8
24/05:00pm 10.4 5.5 8.3 87 1.0 WNW 24 35 13 19 1004.9 1004.1 10.8
24/04:30pm 10.2 5.9 9.4 95 0.4 W 22 35 12 19 1004.9 1004.1 10.8
24/04:03pm 11.2 5.1 6.5 73 2.3 W 28 46 15 25 1004.8 1004.0 10.2
24/04:00pm 11.4 4.9 6.5 72 2.4 W 30 46 16 25 1004.9 1004.1 10.2
24/03:31pm 12.1 6.2 7.6 74 2.2 W 28 57 15 31 1004.9 1004.1 10.2
24/03:30pm 12.2 6.7 7.5 73 2.3 W 26 46 14 25 1004.9 1004.1 10.2
24/03:00pm 11.5 4.9 7.6 77 1.9 W 32 50 17 27 1005.1 1004.3 10.2
24/02:30pm 12.2 5.8 8.5 78 1.9 W 32 50 17 27 1005.1 1004.3 10.2
24/02:00pm 11.5 5.9 8.7 83 1.4 W 28 50 15 27 1005.2 1004.4 10.2
24/01:30pm 11.6 5.8 10.7 94 0.5 W 32 57 17 31 1005.1 1004.3 10.2
24/01:16pm 10.9 5.9 10.9 100 0.0 W 28 46 15 25 1005.3 1004.5 10.2
24/01:00pm 10.2 5.0 10.2 100 0.0 W 28 43 15 23 1005.6 1004.9 10.2
24/12:30pm 10.3 6.8 10.3 100 0.0 WNW 19 30 10 16 1005.8 1005.1 9.6
24/12:00pm 9.7 6.1 9.7 100 0.0 WNW 19 28 10 15 1006.2 1005.5 9.6
24/11:30am 9.8 6.0 9.8 100 0.0 W 20 35 11 19 1006.4 1005.7 7.4
24/11:00am 9.5 4.5 9.5 100 0.0 W 26 48 14 26 1006.5 1005.8 4.8
24/10:30am 10.2 4.6 10.2 100 0.0 WSW 30 50 16 27 1006.1 1005.4 3.2
24/10:00am 10.4 3.9 10.4 100 0.0 WSW 35 57 19 31 1005.6 1004.9 2.8
24/09:48am 10.9 4.6 10.9 100 0.0 W 35 57 19 31 1005.3 1004.5 2.6
24/09:41am 11.9 7.2 11.9 100 0.0 NW 28 56 15 30 1005.5 1004.8 1.4
24/09:30am 12.3 7.7 12.3 100 0.0 NW 28 43 15 23 1005.5 1004.8 0.0
24/09:11am 11.9 7.2 11.9 100 0.0 NW 28 50 15 27 1005.6 1004.9 0.0
24/09:00am 11.7 8.1 11.7 100 0.0 NNW 22 35 12 19 1005.7 1005.0 4.2
24/08:30am 11.6 7.9 11.6 100 0.0 NW 22 37 12 20 1006.0 1005.3 4.2
24/08:00am 11.8 8.8 11.8 100 0.0 NW 19 33 10 18 1006.1 1005.4 3.4
24/07:30am 12.0 9.4 12.0 100 0.0 NNW 17 37 9 20 1006.0 1005.3 1.0
24/07:00am 12.0 9.4 12.0 100 0.0 NNW 17 26 9 14 1006.3 1005.6 0.4
24/06:30am 11.9 10.0 11.9 100 0.0 NW 13 20 7 11 1006.7 1006.0 0.4
24/06:00am 11.8 9.5 11.8 100 0.0 NW 15 22 8 12 1006.9 1006.2 0.0
24/05:30am 11.7 9.4 11.7 100 0.0 NW 15 26 8 14 1007.0 1006.3 0.0
24/05:00am 11.6 9.3 11.6 100 0.0 WNW 15 22 8 12 1007.1 1006.4 0.0
24/04:30am 11.6 9.6 11.6 100 0.0 NW 13 19 7 10 1007.1 1006.4 0.0
24/04:00am 12.1 9.5 12.1 100 0.0 WNW 17 26 9 14 1007.6 1006.8 0.0
24/03:30am 12.3 10.2 12.3 100 0.0 WNW 15 20 8 11 1007.9 1007.2 0.0
24/03:00am 12.2 10.4 12.2 100 0.0 W 13 20 7 11 1008.3 1007.6 0.0
24/02:30am 12.2 10.0 12.2 100 0.0 W 15 20 8 11 1008.8 1008.1 0.0
24/02:00am 12.2 10.0 12.2 100 0.0 W 15 24 8 13 1008.9 1008.2 0.0
24/01:30am 12.5 10.8 12.5 100 0.0 W 13 20 7 11 1009.2 1008.5 0.0
24/01:00am 12.2 11.2 12.2 100 0.0 NW 9 20 5 11 1009.6 1008.9 0.0
24/12:30am 12.2 11.2 12.2 100 0.0 NW 9 13 5 7 1009.9 1009.2 0.0
24/12:00am 11.9 11.2 11.9 100 0.0 NNW 7 11 4 6 1010.3 1009.7 0.0
 
Date/Time
CST
Temp
°C
App
Temp
°C
Dew
Point
Rel
Hum
%
Delta-T
°C
Wind Press
QNH
hPa
Press
MSL
hPa
Rain
since 9 am
mm
Dir
 
Spd
km/h
Gust
km/h
Spd
kts
Gust
kts
23/11:30pm 11.8 12.0 11.8 100 0.0 NW 2 7 1 4 1010.8 1010.1 0.0
23/11:00pm 11.9 11.2 11.9 100 0.0 NW 7 9 4 5 1011.2 1010.5 0.0
23/10:30pm 11.9 10.8 11.9 100 0.0 WNW 9 13 5 7 1011.7 1011.0 0.0
23/10:00pm 11.8 11.0 11.8 100 0.0 WNW 7 9 4 5 1011.9 1011.2 0.0
23/09:30pm 11.8 11.2 11.8 100 0.0 WNW 6 7 3 4 1012.2 1011.5 0.0
23/09:00pm 11.8 12.4 11.8 100 0.0 CALM 0 0 0 0 1012.5 1011.9 0.0
23/08:30pm 11.9 12.5 11.9 100 0.0 CALM 0 6 0 3 1012.5 1011.9 0.0
23/08:00pm 12.1 11.6 12.1 100 0.0 SSW 6 9 3 5 1012.6 1012.0 0.0
23/07:30pm 12.3 11.7 12.3 100 0.0 WSW 7 11 4 6 1012.8 1012.2 0.0
23/07:00pm 12.1 11.4 12.1 100 0.0 WSW 7 13 4 7 1012.9 1012.3 0.0
23/06:30pm 12.2 11.6 12.2 100 0.0 SW 7 11 4 6 1013.1 1012.5 0.0
23/06:00pm 12.6 11.7 12.6 100 0.0 WSW 9 13 5 7 1013.1 1012.5 0.0
23/05:30pm 13.4 12.5 12.6 95 0.4 WSW 9 13 5 7 1013.1 1012.5 0.0
23/05:00pm 14.0 12.8 12.9 93 0.6 WSW 11 17 6 9 1013.0 1012.4 0.0
23/04:30pm 14.3 13.5 13.0 92 0.7 WSW 9 15 5 8 1013.1 1012.5 0.0
23/04:00pm 14.5 14.0 12.5 88 1.1 WSW 7 13 4 7 1013.1 1012.5 0.0
23/03:30pm 15.0 14.6 12.3 84 1.5 S 6 11 3 6 1013.4 1012.7 0.0
23/03:00pm 15.7 15.4 12.6 82 1.7 SE 6 9 3 5 1013.6 1012.9 0.0
23/02:30pm 14.7 15.1 12.6 87 1.2 SE 2 7 1 4 1013.7 1013.0 0.0
23/02:00pm 15.6 15.5 14.0 90 0.9 SSW 7 11 4 6 1014.0 1013.3 0.0
23/01:30pm 14.5 14.3 13.0 91 0.8 S 6 11 3 6 1014.2 1013.5 0.0
23/01:00pm 14.1 13.2 12.5 90 0.9 SE 9 17 5 9 1014.6 1013.9 0.0
23/12:30pm 14.2 13.6 12.4 89 1.0 SE 7 11 4 6 1015.4 1014.8 0.0
23/12:00pm 14.5 14.4 12.0 85 1.4 SSW 4 9 2 5 1016.0 1015.4 0.0
23/11:30am 14.7 15.5 12.6 87 1.2 CALM 0 0 0 0 1016.9 1016.2 0.0
23/11:00am 13.9 13.8 13.9 100 0.0 ESE 7 9 4 5 1017.2 1016.5 0.0
23/10:30am 12.7 11.8 12.7 100 0.0 ESE 9 15 5 8 1017.3 1016.7 0.0
23/10:00am 11.8 11.0 11.8 100 0.0 SE 7 9 4 5 1017.9 1017.3 0.0
23/09:30am 11.2 10.3 11.2 100 0.0 ESE 7 13 4 7 1017.9 1017.3 0.0
23/09:00am 10.8 9.4 10.8 100 0.0 ESE 9 13 5 7 1018.0 1017.4 0.0

Other Formats:

Comma delimited format used in spreadsheet applications
http://www.bom.gov.au/fwo/IDS60801/IDS60801.94683.axf

JavaScript Object Notation format (JSON) in row-major order
http://www.bom.gov.au/fwo/IDS60801/IDS60801.94683.json